Subic Bay International Airport
RPLB : now visible

Airfield :











YOU CAN JOIN US ON...

 
LOGIN :

Register | Disclaimer

   EN    FR    IT 

 









Legend :    VFR   Marginal VFR   IFR   Intensive IFR   Very Intensive IFR
Visi :
Ceiling :
>= 8 km
>= 3000ft
5 to 8 km
1000 to 3000 ft
1500m to 5 km
500 to 1000 ft
800 to 1500m
200 to 500 ft
< 800m
< 200 ft
Symbols :   Thunderstorms  Fog  Heavy snow  Heavy precipitations  Wind > 20 kt






- Airport Elevation : 64 ft
- IATA code : SFS


RPLB - Subic Bay International

CURRENT METAR :
  • 272000Z 05013KT 9999 FEW020 24/19 Q1012 NOSIG RMK A2988

EXPIRED METARs :
  • 271900Z 05010KT 9999 FEW020 25/19 Q1012 NOSIG RMK A2988
  • 271800Z 05012KT 9999 FEW020 SCT080 25/19 Q1013 NOSIG RMK A2991

TAF TAF RPLB
Valid from the 27 at 18:00 until the 28 at 18:00 UTC


271700Z 2718/2818 06012KT 9999 FEW020 SCT300 TX32/2806Z TN23/2721Z
TEMPO 2718/2724 07016G26KT FEW020 SCT080 BKN300



MET'MAP, your aeronautical weather chart ! - Copyright ORBIFLY December 2007 - Disclaimer

ORBIFLY MET'MAP TEAM :

Programming & Development : Alexandra Zaïnal
Concept & original design : Baudouin d'Aumeries
Assistance for programming : Marc-Olivier Méhu
Technical & hardware support : Manuel Goepfert

Contact : metmap@orbifly.com




SOURCES & CREDITS :

   NOAA       Earth
Advisory